createdAt,value
2023-03-18T00:01:18.591Z,12.50
2023-03-18T00:04:21.530Z,12.70
2023-03-18T00:07:23.477Z,12.80
2023-03-18T00:10:25.453Z,12.90
2023-03-18T00:13:28.202Z,12.80
2023-03-18T00:16:30.627Z,12.70
2023-03-18T00:19:32.737Z,12.60
2023-03-18T00:22:35.750Z,12.60
2023-03-18T00:25:38.399Z,12.50
2023-03-18T00:28:40.254Z,12.50
2023-03-18T00:31:42.243Z,12.70
2023-03-18T00:34:44.242Z,12.80
2023-03-18T00:37:46.198Z,12.80
2023-03-18T00:40:49.266Z,12.70
2023-03-18T00:43:51.353Z,12.60
2023-03-18T00:46:53.265Z,12.70
2023-03-18T00:49:55.175Z,12.80
2023-03-18T00:52:57.153Z,12.80
2023-03-18T00:55:59.059Z,12.90
2023-03-18T00:59:01.412Z,13.00
2023-03-18T01:02:03.846Z,13.10
2023-03-18T01:05:06.447Z,13.20
2023-03-18T01:08:08.312Z,13.30
2023-03-18T01:11:11.471Z,13.40
2023-03-18T01:14:13.326Z,13.40
2023-03-18T01:17:17.802Z,13.50
2023-03-18T01:20:20.927Z,13.50
2023-03-18T01:23:26.888Z,13.50
2023-03-18T01:26:28.915Z,13.50
2023-03-18T01:29:33.555Z,13.50
2023-03-18T01:32:37.094Z,13.50
2023-03-18T01:35:39.109Z,13.50
2023-03-18T01:38:44.036Z,13.40
2023-03-18T01:41:48.863Z,13.50
2023-03-18T01:45:20.306Z,13.40
2023-03-18T01:48:26.856Z,13.40
2023-03-18T01:51:38.152Z,13.40
2023-03-18T01:54:45.814Z,13.40
2023-03-18T01:57:49.675Z,13.40
2023-03-18T02:00:58.375Z,13.30
2023-03-18T02:04:04.596Z,13.20
2023-03-18T02:07:06.650Z,13.20
2023-03-18T02:10:32.701Z,13.20
2023-03-18T02:13:43.148Z,13.20
2023-03-18T02:17:12.717Z,13.20
2023-03-18T02:20:41.140Z,13.10
2023-03-18T02:24:31.042Z,13.00
2023-03-18T02:27:37.480Z,12.90
2023-03-18T02:30:44.227Z,12.90
2023-03-18T02:33:48.320Z,12.90
2023-03-18T02:36:50.250Z,12.90
2023-03-18T02:39:52.473Z,12.80
2023-03-18T02:42:56.989Z,12.80
2023-03-18T02:46:11.279Z,12.80
2023-03-18T02:49:14.399Z,12.70
2023-03-18T02:52:16.424Z,12.80
2023-03-18T02:55:18.479Z,12.80
2023-03-18T02:58:20.746Z,12.40
2023-03-18T03:01:27.148Z,12.00
2023-03-18T03:04:31.737Z,11.90
2023-03-18T03:07:33.734Z,11.50
2023-03-18T03:10:37.534Z,11.40
2023-03-18T03:13:42.013Z,11.40
2023-03-18T03:16:45.962Z,11.40
2023-03-18T03:19:47.824Z,11.30
2023-03-18T03:22:49.825Z,11.30
2023-03-18T03:25:52.393Z,11.40
2023-03-18T03:28:55.603Z,11.20
2023-03-18T03:31:57.473Z,11.20
2023-03-18T03:34:59.336Z,11.20
2023-03-18T03:38:01.242Z,11.00
2023-03-18T03:41:03.223Z,10.80
2023-03-18T03:44:05.406Z,10.80
2023-03-18T03:47:07.633Z,10.60
2023-03-18T03:50:11.361Z,10.50
2023-03-18T03:53:13.386Z,10.60
2023-03-18T03:56:15.327Z,10.70
2023-03-18T03:59:17.808Z,10.80
2023-03-18T04:05:54.811Z,10.70
2023-03-18T04:09:02.025Z,10.60
2023-03-18T04:12:04.688Z,10.40
2023-03-18T04:15:08.458Z,10.40
2023-03-18T04:18:11.436Z,10.50
2023-03-18T04:21:13.629Z,10.60
2023-03-18T04:24:23.037Z,10.60
2023-03-18T04:27:26.561Z,10.30
2023-03-18T04:30:28.829Z,10.30
2023-03-18T04:33:44.283Z,10.40
2023-03-18T04:36:46.644Z,10.40
2023-03-18T04:39:49.943Z,10.50
2023-03-18T04:42:51.829Z,10.40
2023-03-18T04:45:59.056Z,10.40
2023-03-18T04:49:01.309Z,10.10
2023-03-18T04:52:03.737Z,10.20
2023-03-18T04:55:08.627Z,10.30
2023-03-18T04:58:13.439Z,10.40
2023-03-18T05:01:22.040Z,10.40
2023-03-18T05:04:24.323Z,10.40
2023-03-18T05:07:28.533Z,10.40
2023-03-18T05:10:37.083Z,10.40
2023-03-18T05:13:39.434Z,10.40
2023-03-18T05:16:42.762Z,10.30
2023-03-18T05:19:46.981Z,10.30
2023-03-18T05:22:53.893Z,10.30
2023-03-18T05:26:13.744Z,10.40
2023-03-18T05:29:19.146Z,10.30
2023-03-18T05:32:44.134Z,10.30
2023-03-18T05:35:47.084Z,10.30
2023-03-18T05:38:52.043Z,10.30
2023-03-18T05:41:54.290Z,10.20
2023-03-18T05:45:01.505Z,10.20
2023-03-18T05:48:04.048Z,10.20
2023-03-18T05:51:13.974Z,10.10
2023-03-18T05:54:16.454Z,10.10
2023-03-18T05:57:19.718Z,10.10
2023-03-18T06:00:23.090Z,9.80
2023-03-18T06:03:25.919Z,9.60
2023-03-18T06:06:27.921Z,9.50
2023-03-18T06:09:30.554Z,9.50
2023-03-18T06:12:32.694Z,9.50
2023-03-18T06:15:34.789Z,9.70
2023-03-18T06:18:37.521Z,9.80
2023-03-18T06:21:40.684Z,9.90
2023-03-18T06:24:44.526Z,10.10
2023-03-18T06:27:47.366Z,9.90
2023-03-18T06:30:51.251Z,10.10
2023-03-18T06:33:53.724Z,10.00
2023-03-18T06:36:57.502Z,10.60
2023-03-18T06:40:00.777Z,11.40
2023-03-18T06:43:03.219Z,11.60
2023-03-18T06:46:12.046Z,12.00
2023-03-18T06:49:18.280Z,12.40
2023-03-18T06:52:27.137Z,12.90
2023-03-18T06:55:34.606Z,13.10
2023-03-18T06:58:38.858Z,13.40
2023-03-18T07:01:44.327Z,14.30
2023-03-18T07:04:47.678Z,14.80
2023-03-18T07:07:50.084Z,15.30
2023-03-18T07:10:52.850Z,15.80
2023-03-18T07:13:55.450Z,16.00
2023-03-18T07:17:03.021Z,16.20
2023-03-18T07:20:05.505Z,16.70
2023-03-18T07:23:10.555Z,17.00
2023-03-18T07:26:13.964Z,17.70
2023-03-18T07:29:16.342Z,18.00
2023-03-18T07:32:18.579Z,18.50
2023-03-18T07:35:20.549Z,19.00
2023-03-18T07:38:22.543Z,19.40
2023-03-18T07:41:26.726Z,19.70
2023-03-18T07:44:28.719Z,20.40
2023-03-18T07:47:31.031Z,20.60
2023-03-18T07:50:33.555Z,21.00
2023-03-18T07:53:35.458Z,21.60
2023-03-18T07:56:39.794Z,21.80
2023-03-18T07:59:42.009Z,22.10
2023-03-18T08:02:44.223Z,22.30
2023-03-18T08:05:46.238Z,22.90
2023-03-18T08:08:48.083Z,23.00
2023-03-18T08:11:50.566Z,23.40
2023-03-18T08:14:55.596Z,23.70
2023-03-18T08:17:57.616Z,23.80
2023-03-18T08:20:59.720Z,23.90
2023-03-18T08:24:01.600Z,24.00
2023-03-18T08:27:04.306Z,24.30
2023-03-18T08:30:06.760Z,25.00
2023-03-18T08:33:08.997Z,25.20
2023-03-18T08:36:11.138Z,25.20
2023-03-18T08:39:14.592Z,25.30
2023-03-18T08:42:16.675Z,25.20
2023-03-18T08:45:21.299Z,25.10
2023-03-18T08:48:23.848Z,24.90
2023-03-18T08:51:26.692Z,24.80
2023-03-18T08:54:29.336Z,22.90
2023-03-18T08:57:31.559Z,21.90
2023-03-18T09:00:36.100Z,21.20
2023-03-18T09:03:38.312Z,21.10
2023-03-18T09:06:40.582Z,21.20
2023-03-18T09:09:44.208Z,20.90
2023-03-18T09:12:46.808Z,21.40
2023-03-18T09:15:49.052Z,21.20
2023-03-18T09:18:51.106Z,21.40
2023-03-18T09:21:53.656Z,22.10
2023-03-18T09:24:55.553Z,22.90
2023-03-18T09:27:57.493Z,23.60
2023-03-18T09:30:59.503Z,23.90
2023-03-18T09:34:01.514Z,24.40
2023-03-18T09:37:03.725Z,24.40
2023-03-18T09:40:08.684Z,24.60
2023-03-18T09:43:48.475Z,24.80
2023-03-18T09:47:05.196Z,24.40
2023-03-18T09:50:29.726Z,24.20
2023-03-18T09:53:43.976Z,23.90
2023-03-18T09:56:46.184Z,24.40
2023-03-18T10:00:12.455Z,24.20
2023-03-18T10:03:23.353Z,23.10
2023-03-18T10:06:26.829Z,22.20
2023-03-18T10:09:41.684Z,21.60
2023-03-18T10:13:10.342Z,22.10
2023-03-18T10:16:20.489Z,21.80
2023-03-18T10:19:22.565Z,22.60
2023-03-18T10:22:54.929Z,22.90
2023-03-18T10:26:04.848Z,22.80
2023-03-18T10:29:09.454Z,22.90
2023-03-18T10:32:49.559Z,22.60
2023-03-18T10:36:08.311Z,22.00
2023-03-18T10:39:17.869Z,22.00
2023-03-18T10:42:25.246Z,22.40
2023-03-18T10:45:34.564Z,23.00
2023-03-18T10:48:41.322Z,22.40
2023-03-18T10:51:59.638Z,22.20
2023-03-18T10:55:01.643Z,22.20
2023-03-18T10:58:18.507Z,22.20
2023-03-18T11:01:23.518Z,22.60
2023-03-18T11:04:28.741Z,22.00
2023-03-18T11:07:31.358Z,22.20
2023-03-18T11:10:53.892Z,22.30
2023-03-18T11:13:57.609Z,22.70
2023-03-18T11:17:00.816Z,23.00
2023-03-18T11:20:23.246Z,22.90
2023-03-18T11:23:36.888Z,22.80
2023-03-18T11:26:56.906Z,22.50
2023-03-18T11:30:02.951Z,22.20
2023-03-18T11:33:13.267Z,21.70
2023-03-18T11:36:22.507Z,21.80
2023-03-18T11:39:25.388Z,21.20
2023-03-18T11:42:27.317Z,21.10
2023-03-18T11:45:31.872Z,21.20
2023-03-18T11:48:36.081Z,21.30
2023-03-18T12:03:42.961Z,21.50
2023-03-18T12:07:22.487Z,21.40
2023-03-18T12:10:38.801Z,21.40
2023-03-18T12:13:43.896Z,21.60
2023-03-18T12:17:17.847Z,21.70
2023-03-18T12:20:35.545Z,21.80
2023-03-18T12:23:53.957Z,21.50
2023-03-18T12:27:01.784Z,21.30
2023-03-18T12:30:28.014Z,21.20
2023-03-18T12:33:51.921Z,21.20
2023-03-18T12:37:10.511Z,21.10
2023-03-18T12:40:47.554Z,21.10
2023-03-18T12:43:55.427Z,21.20
2023-03-18T12:47:23.008Z,21.40
2023-03-18T12:50:36.659Z,21.40
2023-03-18T12:53:45.072Z,21.50
2023-03-18T12:56:50.803Z,21.70
2023-03-18T13:00:00.946Z,21.60
2023-03-18T13:03:33.391Z,21.90
2023-03-18T13:06:47.516Z,21.50
2023-03-18T13:10:24.559Z,21.40
2023-03-18T13:13:28.642Z,21.40
2023-03-18T13:16:32.596Z,21.40
2023-03-18T13:19:36.157Z,21.30
2023-03-18T13:22:44.418Z,21.10
2023-03-18T13:26:03.423Z,21.10
2023-03-18T13:29:45.047Z,21.50
2023-03-18T13:33:21.938Z,21.70
2023-03-18T13:37:01.532Z,21.40
2023-03-18T13:40:21.361Z,21.10
2023-03-18T13:43:25.568Z,21.00
2023-03-18T13:46:31.523Z,21.00
2023-03-18T13:49:34.147Z,21.00
2023-03-18T13:52:43.769Z,21.20
2023-03-18T13:55:57.790Z,21.20
2023-03-18T13:59:04.745Z,21.30
2023-03-18T14:02:34.308Z,21.20
2023-03-18T14:05:39.609Z,21.10
2023-03-18T14:08:44.331Z,21.20
2023-03-18T14:11:47.478Z,21.20
2023-03-18T14:14:52.927Z,21.10
2023-03-18T14:17:56.988Z,21.50
2023-03-18T14:21:02.067Z,21.40
2023-03-18T14:24:12.104Z,21.20
2023-03-18T14:27:19.216Z,20.90
2023-03-18T14:30:30.468Z,20.90
2023-03-18T14:33:34.124Z,20.90
2023-03-18T14:37:05.226Z,20.80
2023-03-18T14:40:17.482Z,20.80
2023-03-18T14:43:37.281Z,20.90
2023-03-18T14:46:45.378Z,20.70
2023-03-18T14:49:55.032Z,20.70
2023-03-18T14:53:09.987Z,20.80
2023-03-18T14:56:19.614Z,20.80
2023-03-18T14:59:25.697Z,20.70
2023-03-18T15:05:43.224Z,20.60
2023-03-18T15:09:07.898Z,20.60
2023-03-18T15:12:24.923Z,20.50
2023-03-18T15:15:34.512Z,20.40
2023-03-18T15:18:38.301Z,20.40
2023-03-18T15:21:40.501Z,20.40
2023-03-18T15:24:43.404Z,20.40
2023-03-18T15:27:49.066Z,20.40
2023-03-18T15:30:58.307Z,20.30
2023-03-18T15:34:14.994Z,20.20
2023-03-18T15:37:41.726Z,20.10
2023-03-18T15:40:52.498Z,20.20
2023-03-18T15:43:54.488Z,20.10
2023-03-18T15:47:03.430Z,20.00
2023-03-18T15:50:11.520Z,20.00
2023-03-18T15:53:27.988Z,20.10
2023-03-18T15:56:34.561Z,20.10
2023-03-18T15:59:38.046Z,20.20
2023-03-18T16:02:40.417Z,20.10
2023-03-18T16:05:42.574Z,20.00
2023-03-18T16:08:44.824Z,20.00
2023-03-18T16:11:55.370Z,19.80
2023-03-18T16:14:57.475Z,19.70
2023-03-18T16:18:00.537Z,19.50
2023-03-18T16:21:04.100Z,19.50
2023-03-18T16:24:06.778Z,19.40
2023-03-18T16:27:26.534Z,19.30
2023-03-18T16:30:30.958Z,19.30
2023-03-18T16:33:34.407Z,19.20
2023-03-18T16:36:36.306Z,19.20
2023-03-18T16:39:38.399Z,19.00
2023-03-18T16:42:40.786Z,19.00
2023-03-18T16:45:45.970Z,18.90
2023-03-18T16:48:48.625Z,18.90
2023-03-18T16:51:51.234Z,18.90
2023-03-18T16:54:53.369Z,18.70
2023-03-18T16:58:01.978Z,18.70
2023-03-18T17:01:06.177Z,18.60
2023-03-18T17:04:34.658Z,18.60
2023-03-18T17:07:39.021Z,18.40
2023-03-18T17:10:41.587Z,18.40
2023-03-18T17:13:43.430Z,18.40
2023-03-18T17:16:45.380Z,18.30
2023-03-18T17:19:47.327Z,18.30
2023-03-18T17:22:49.313Z,18.20
2023-03-18T17:26:00.265Z,18.30
2023-03-18T17:29:02.186Z,18.00
2023-03-18T17:32:04.192Z,18.00
2023-03-18T17:35:12.944Z,17.90
2023-03-18T17:38:15.728Z,17.80
2023-03-18T17:41:21.095Z,17.60
2023-03-18T17:44:30.298Z,17.50
2023-03-18T17:47:32.778Z,17.50
2023-03-18T17:50:41.408Z,17.40
2023-03-18T17:53:55.916Z,17.30
2023-03-18T17:56:57.804Z,17.20
2023-03-18T18:00:00.271Z,17.10
2023-03-18T18:03:02.400Z,16.90
2023-03-18T18:06:04.684Z,16.80
2023-03-18T18:09:06.496Z,16.70
2023-03-18T18:12:16.427Z,16.60
2023-03-18T18:15:24.014Z,16.60
2023-03-18T18:18:27.989Z,16.40
2023-03-18T18:21:30.121Z,16.30
2023-03-18T18:24:32.341Z,16.20
2023-03-18T18:27:35.089Z,16.00
2023-03-18T18:30:37.257Z,16.20
2023-03-18T18:33:48.054Z,16.10
2023-03-18T18:36:50.535Z,16.00
2023-03-18T18:39:52.375Z,16.00
2023-03-18T18:42:54.203Z,15.90
2023-03-18T18:45:57.288Z,15.90
2023-03-18T18:48:59.260Z,15.90
2023-03-18T18:55:08.587Z,15.70
2023-03-18T18:58:18.644Z,15.60
2023-03-18T19:01:20.938Z,15.60
2023-03-18T19:04:23.323Z,15.50
2023-03-18T19:07:25.096Z,15.20
2023-03-18T19:10:26.998Z,15.30
2023-03-18T19:13:30.299Z,15.40
2023-03-18T19:16:34.534Z,15.40
2023-03-18T19:19:36.358Z,15.10
2023-03-18T19:22:38.166Z,15.30
2023-03-18T19:25:40.033Z,15.10
2023-03-18T19:28:55.098Z,15.10
2023-03-18T19:32:00.296Z,14.80
2023-03-18T19:35:02.506Z,14.80
2023-03-18T19:38:04.349Z,14.60
2023-03-18T19:41:06.266Z,14.40
2023-03-18T19:44:22.937Z,14.30
2023-03-18T19:47:26.894Z,14.40
2023-03-18T19:50:28.704Z,14.50
2023-03-18T19:53:30.690Z,14.50
2023-03-18T19:56:32.867Z,14.50
2023-03-18T19:59:39.323Z,14.40
2023-03-18T20:02:48.799Z,14.20
2023-03-18T20:05:51.149Z,14.40
2023-03-18T20:08:53.037Z,14.40
2023-03-18T20:12:03.003Z,14.40
2023-03-18T20:15:21.372Z,14.40
2023-03-18T20:18:30.219Z,14.40
2023-03-18T20:21:32.403Z,14.30
2023-03-18T20:24:34.406Z,14.40
2023-03-18T20:27:43.180Z,14.40
2023-03-18T20:33:53.117Z,14.40
2023-03-18T20:36:55.145Z,14.40
2023-03-18T20:39:57.428Z,14.40
2023-03-18T20:42:59.758Z,14.30
2023-03-18T20:46:02.058Z,14.40
2023-03-18T20:49:04.264Z,14.20
2023-03-18T20:52:06.647Z,14.00
2023-03-18T20:55:35.317Z,14.00
2023-03-18T20:58:37.693Z,14.10
2023-03-18T21:01:39.953Z,14.20
2023-03-18T21:04:41.907Z,14.20
2023-03-18T21:07:44.362Z,14.20
2023-03-18T21:10:46.224Z,14.10
2023-03-18T21:16:56.160Z,13.90
2023-03-18T21:20:11.174Z,14.00
2023-03-18T21:26:33.172Z,14.00
2023-03-18T21:29:41.037Z,13.90
2023-03-18T21:32:43.289Z,13.90
2023-03-18T21:35:45.190Z,13.70
2023-03-18T21:38:47.005Z,13.50
2023-03-18T21:41:48.830Z,13.40
2023-03-18T21:44:51.698Z,13.50
2023-03-18T21:47:53.759Z,13.40
2023-03-18T21:50:56.177Z,13.40
2023-03-18T21:53:58.395Z,13.20
2023-03-18T21:57:01.360Z,13.10
2023-03-18T22:00:04.388Z,13.00
2023-03-18T22:03:14.555Z,12.90
2023-03-18T22:06:17.304Z,13.00
2023-03-18T22:09:19.363Z,12.90
2023-03-18T22:12:32.009Z,12.90
2023-03-18T22:15:38.786Z,12.70
2023-03-18T22:18:44.308Z,12.90
2023-03-18T22:21:46.333Z,12.90
2023-03-18T22:24:48.937Z,12.90
2023-03-18T22:27:50.962Z,12.90
2023-03-18T22:30:56.446Z,12.80
2023-03-18T22:33:58.610Z,12.70
2023-03-18T22:37:00.617Z,12.80
2023-03-18T22:40:02.724Z,12.70
2023-03-18T22:43:13.951Z,12.70
2023-03-18T22:46:16.468Z,12.80
2023-03-18T22:49:18.674Z,12.90
2023-03-18T22:52:30.263Z,12.90
2023-03-18T22:55:38.635Z,12.90
2023-03-18T22:58:40.674Z,12.90
2023-03-18T23:01:42.751Z,13.00
2023-03-18T23:04:50.047Z,13.00
2023-03-18T23:07:53.043Z,12.90
2023-03-18T23:11:00.737Z,13.10
2023-03-18T23:14:04.394Z,13.00
2023-03-18T23:17:06.587Z,13.00
2023-03-18T23:20:09.261Z,12.90
2023-03-18T23:23:11.746Z,13.10
2023-03-18T23:26:13.686Z,13.00
2023-03-18T23:29:15.885Z,13.10
2023-03-18T23:32:19.158Z,13.20
2023-03-18T23:35:21.331Z,12.80
2023-03-18T23:38:23.206Z,12.70
2023-03-18T23:41:25.264Z,12.80
2023-03-18T23:44:27.749Z,12.80
2023-03-18T23:47:29.788Z,12.90
2023-03-18T23:50:31.857Z,13.00
2023-03-18T23:53:33.780Z,13.10
2023-03-18T23:56:36.300Z,13.10
2023-03-18T23:59:38.554Z,13.30
